Time;durP1;ratioP1;P1;durP2;ratioP2;P2;SDS_P1;SDS_P2;PMS_P1;PMS_P2;Temp;Humidity;BMP_temperature;BMP_pressure;BME280_temperature;BME280_humidity;BME280_pressure;Samples;Min_cycle;Max_cycle;Signal;HPM_P1;HPM_P2
2023/12/27 06:00:25;;;;;;;2.33;1.77;;;;;;;;;;1743928;28;20214;-76
2023/12/27 06:01:18;;;;;;;3.83;2.70;;;;;;;;;;1743783;28;20195;-77
2023/12/27 06:02:11;;;;;;;3.40;2.38;;;;;;;;;;1743423;28;20199;-76
2023/12/27 06:03:02;;;;;;;3.13;1.80;;;;;;;;;;1743947;28;20222;-77
2023/12/27 06:03:53;;;;;;;2.92;2.63;;;;;;;;;;1743203;28;20248;-77
2023/12/27 06:04:45;;;;;;;2.47;2.10;;;;;;;;;;1744251;28;20273;-77
2023/12/27 06:05:36;;;;;;;3.03;2.72;;;;;;;;;;1744027;28;20239;-76
2023/12/27 06:06:27;;;;;;;5.70;3.30;;;;;;;;;;1744267;28;20187;-77
2023/12/27 06:07:20;;;;;;;5.05;3.88;;;;;;;;;;1741741;28;20191;-76
2023/12/27 06:08:11;;;;;;;5.80;3.50;;;;;;;;;;1744134;28;20690;-76
2023/12/27 06:09:02;;;;;;;6.18;3.35;;;;;;;;;;1744125;28;20279;-77
2023/12/27 06:09:54;;;;;;;5.78;3.97;;;;;;;;;;1743704;28;20570;-77
2023/12/27 06:10:46;;;;;;;6.88;4.68;;;;;;;;;;1743439;28;20215;-77
2023/12/27 06:11:37;;;;;;;8.32;5.07;;;;;;;;;;1743824;28;20199;-76
2023/12/27 06:12:30;;;;;;;7.35;4.57;;;;;;;;;;1743870;28;20213;-76
2023/12/27 06:13:21;;;;;;;8.82;4.72;;;;;;;;;;1743859;28;20198;-76
2023/12/27 06:14:12;;;;;;;9.20;5.10;;;;;;;;;;1743925;28;20187;-77
2023/12/27 06:15:05;;;;;;;8.68;5.35;;;;;;;;;;1743895;28;20191;-76
2023/12/27 06:15:58;;;;;;;8.23;5.15;;;;;;;;;;1743736;28;20686;-77
2023/12/27 06:16:49;;;;;;;9.15;5.35;;;;;;;;;;1743889;28;20562;-77
2023/12/27 06:17:42;;;;;;;5.45;4.45;;;;;;;;;;1743828;28;20667;-77
2023/12/27 06:18:33;;;;;;;5.22;3.88;;;;;;;;;;1743679;28;20199;-77
2023/12/27 06:19:24;;;;;;;5.55;3.95;;;;;;;;;;1743964;28;20203;-77
2023/12/27 06:20:17;;;;;;;6.30;4.30;;;;;;;;;;1743698;28;20187;-76
2023/12/27 06:21:10;;;;;;;4.93;3.50;;;;;;;;;;1743666;28;20259;-76
2023/12/27 06:22:01;;;;;;;4.85;3.65;;;;;;;;;;1744227;28;20676;-77
2023/12/27 06:22:53;;;;;;;3.80;2.80;;;;;;;;;;1743691;28;20187;-77
2023/12/27 06:23:44;;;;;;;3.38;3.08;;;;;;;;;;1743240;28;20191;-76
2023/12/27 06:24:36;;;;;;;4.82;2.97;;;;;;;;;;1743841;28;20593;-77
2023/12/27 06:25:28;;;;;;;4.35;2.67;;;;;;;;;;1743797;28;20714;-77
2023/12/27 06:26:19;;;;;;;6.50;3.28;;;;;;;;;;1741530;28;20195;-76
2023/12/27 06:27:12;;;;;;;3.25;2.50;;;;;;;;;;1743602;28;20197;-76
2023/12/27 06:28:05;;;;;;;4.93;2.45;;;;;;;;;;1743329;28;20683;-77
2023/12/27 06:28:56;;;;;;;3.38;2.95;;;;;;;;;;1743770;28;20203;-77
2023/12/27 06:29:47;;;;;;;2.90;2.58;;;;;;;;;;1744134;28;20212;-76
2023/12/27 06:30:39;;;;;;;3.00;2.80;;;;;;;;;;1743477;28;20254;-77
2023/12/27 06:31:34;;;;;;;5.70;4.03;;;;;;;;;;1743783;28;20222;-77
2023/12/27 06:32:25;;;;;;;4.45;4.00;;;;;;;;;;1743553;28;20290;-76
2023/12/27 06:33:17;;;;;;;6.03;3.70;;;;;;;;;;1743833;28;20203;-77
2023/12/27 06:34:08;;;;;;;4.07;3.40;;;;;;;;;;1747532;28;20199;-76
2023/12/27 06:34:59;;;;;;;5.28;4.47;;;;;;;;;;1744043;28;20210;-76
2023/12/27 06:35:51;;;;;;;7.97;4.70;;;;;;;;;;1743731;28;20202;-77
2023/12/27 06:36:42;;;;;;;4.85;4.25;;;;;;;;;;1738203;28;20220;-77
2023/12/27 06:37:34;;;;;;;4.70;4.25;;;;;;;;;;1737016;28;20203;-77
2023/12/27 06:38:26;;;;;;;3.97;3.58;;;;;;;;;;1745247;28;20206;-76
2023/12/27 06:39:17;;;;;;;5.57;3.53;;;;;;;;;;1744091;28;20203;-76
2023/12/27 06:40:09;;;;;;;5.00;3.80;;;;;;;;;;1745243;28;20278;-77
2023/12/27 06:41:02;;;;;;;3.97;3.50;;;;;;;;;;1744031;28;20226;-77
2023/12/27 06:41:53;;;;;;;6.80;4.10;;;;;;;;;;1743849;28;20195;-76
2023/12/27 06:42:45;;;;;;;8.35;4.63;;;;;;;;;;1743835;28;20285;-76
2023/12/27 06:43:37;;;;;;;4.65;3.97;;;;;;;;;;1744488;28;20285;-77
2023/12/27 06:44:28;;;;;;;4.25;3.30;;;;;;;;;;1737391;28;20211;-77
2023/12/27 06:45:19;;;;;;;4.28;3.80;;;;;;;;;;1737569;28;20570;-76
2023/12/27 06:46:12;;;;;;;7.30;3.83;;;;;;;;;;1743041;28;20199;-77
2023/12/27 06:47:04;;;;;;;4.10;3.70;;;;;;;;;;1744087;28;20566;-77
2023/12/27 06:47:55;;;;;;;3.83;3.00;;;;;;;;;;1745888;28;20259;-76
2023/12/27 06:48:47;;;;;;;6.97;2.97;;;;;;;;;;1751155;28;20213;-77
2023/12/27 06:49:39;;;;;;;5.05;3.03;;;;;;;;;;1749018;28;20213;-77
2023/12/27 06:50:30;;;;;;;6.70;2.70;;;;;;;;;;1744143;28;20209;-76
2023/12/27 06:51:22;;;;;;;8.82;2.90;;;;;;;;;;1744138;28;20268;-77
2023/12/27 06:52:13;;;;;;;4.28;2.60;;;;;;;;;;1744389;28;20218;-77
2023/12/27 06:53:05;;;;;;;2.63;1.80;;;;;;;;;;1744789;28;20203;-78
2023/12/27 06:53:56;;;;;;;4.50;2.40;;;;;;;;;;1737691;28;20216;-77
2023/12/27 06:54:48;;;;;;;2.25;2.10;;;;;;;;;;1737561;28;20195;-77
2023/12/27 06:55:40;;;;;;;3.22;2.40;;;;;;;;;;1741960;28;20687;-77
2023/12/27 06:56:31;;;;;;;2.88;2.35;;;;;;;;;;1744390;28;20213;-77
2023/12/27 06:57:22;;;;;;;3.55;2.47;;;;;;;;;;1741438;28;20212;-77
2023/12/27 06:58:14;;;;;;;6.82;2.45;;;;;;;;;;1737149;28;20866;-77
2023/12/27 06:59:05;;;;;;;3.15;2.35;;;;;;;;;;1738901;28;20218;-77
2023/12/27 06:59:57;;;;;;;2.80;2.40;;;;;;;;;;1743598;28;20257;-77
2023/12/27 07:00:48;;;;;;;2.53;2.15;;;;;;;;;;1743122;28;20235;-77
2023/12/27 07:01:39;;;;;;;2.78;2.40;;;;;;;;;;1744826;28;20199;-76
2023/12/27 07:02:33;;;;;;;2.78;2.47;;;;;;;;;;1750211;28;20202;-77
2023/12/27 07:03:25;;;;;;;4.30;2.90;;;;;;;;;;1743700;28;20573;-77
2023/12/27 07:04:16;;;;;;;3.30;2.72;;;;;;;;;;1742801;28;20203;-77
2023/12/27 07:05:08;;;;;;;3.95;2.97;;;;;;;;;;1738383;28;20267;-77
2023/12/27 07:05:59;;;;;;;6.65;3.53;;;;;;;;;;1736412;28;20324;-77
2023/12/27 07:06:50;;;;;;;3.60;3.22;;;;;;;;;;1738629;28;20207;-76
2023/12/27 07:07:42;;;;;;;8.10;3.38;;;;;;;;;;1742360;28;20199;-76
2023/12/27 07:08:34;;;;;;;3.45;2.95;;;;;;;;;;1740975;28;20206;-76
2023/12/27 07:09:26;;;;;;;5.13;2.95;;;;;;;;;;1736006;28;20231;-76
2023/12/27 07:10:17;;;;;;;3.67;2.75;;;;;;;;;;1735360;28;20208;-76
2023/12/27 07:11:10;;;;;;;4.57;2.90;;;;;;;;;;1741969;28;20245;-76
2023/12/27 07:12:02;;;;;;;5.07;3.42;;;;;;;;;;1742563;28;20207;-77
2023/12/27 07:12:53;;;;;;;3.35;3.00;;;;;;;;;;1742126;28;20282;-76
2023/12/27 07:13:46;;;;;;;5.80;3.72;;;;;;;;;;1742063;28;20206;-77
2023/12/27 07:14:38;;;;;;;3.63;3.20;;;;;;;;;;1737896;28;20698;-77
2023/12/27 07:15:29;;;;;;;3.75;2.90;;;;;;;;;;1741070;28;20201;-76
2023/12/27 07:16:21;;;;;;;4.03;3.20;;;;;;;;;;1746301;28;20196;-77
2023/12/27 07:17:12;;;;;;;4.30;3.38;;;;;;;;;;1743271;28;20573;-76
2023/12/27 07:18:06;;;;;;;4.18;3.22;;;;;;;;;;1747472;28;20198;-76
2023/12/27 07:18:58;;;;;;;4.20;3.40;;;;;;;;;;1742138;28;20234;-76
2023/12/27 07:19:49;;;;;;;4.45;3.72;;;;;;;;;;1741979;28;20203;-77
2023/12/27 07:20:41;;;;;;;5.95;3.28;;;;;;;;;;1735625;28;20220;-76
2023/12/27 07:21:32;;;;;;;5.35;3.42;;;;;;;;;;1742160;28;20211;-77
2023/12/27 07:22:23;;;;;;;5.25;3.38;;;;;;;;;;1741865;28;20203;-76
2023/12/27 07:23:15;;;;;;;4.88;3.03;;;;;;;;;;1741971;28;20681;-76
2023/12/27 07:24:06;;;;;;;4.55;3.42;;;;;;;;;;1738042;28;20211;-76
2023/12/27 07:24:58;;;;;;;5.13;2.97;;;;;;;;;;1735273;28;20199;-77
2023/12/27 07:25:50;;;;;;;3.47;3.17;;;;;;;;;;1737442;28;20282;-77
2023/12/27 07:26:41;;;;;;;3.25;2.60;;;;;;;;;;1742410;28;20206;-77
2023/12/27 07:27:32;;;;;;;2.95;2.30;;;;;;;;;;1741732;28;20201;-77
2023/12/27 07:28:24;;;;;;;3.75;2.80;;;;;;;;;;1734786;28;20290;-77
2023/12/27 07:29:15;;;;;;;5.10;2.72;;;;;;;;;;1738287;28;20660;-76
2023/12/27 07:30:07;;;;;;;8.73;3.58;;;;;;;;;;1745669;28;20186;-76
2023/12/27 07:30:59;;;;;;;3.90;3.15;;;;;;;;;;1745619;28;20345;-77
2023/12/27 07:31:50;;;;;;;5.35;2.90;;;;;;;;;;1742233;28;20210;-77
2023/12/27 07:32:42;;;;;;;3.25;2.60;;;;;;;;;;1742075;28;20202;-76
2023/12/27 07:33:38;;;;;;;3.65;2.95;;;;;;;;;;1739013;28;20200;-76
2023/12/27 07:34:29;;;;;;;5.00;3.45;;;;;;;;;;1735478;28;20683;-76
2023/12/27 07:35:21;;;;;;;4.60;2.88;;;;;;;;;;1737296;28;20629;-77
2023/12/27 07:36:12;;;;;;;5.65;2.50;;;;;;;;;;1742159;28;20207;-76
2023/12/27 07:37:03;;;;;;;4.15;2.80;;;;;;;;;;1741537;28;20223;-77
2023/12/27 07:37:55;;;;;;;4.85;3.00;;;;;;;;;;1735389;28;20203;-76
2023/12/27 07:38:47;;;;;;;3.22;2.45;;;;;;;;;;1735539;28;20204;-77
2023/12/27 07:39:38;;;;;;;3.50;2.80;;;;;;;;;;1741401;28;20211;-78
2023/12/27 07:40:30;;;;;;;3.85;3.00;;;;;;;;;;1742682;28;20290;-81
2023/12/27 07:41:21;;;;;;;5.38;3.55;;;;;;;;;;1742148;28;20199;-79
2023/12/27 07:42:12;;;;;;;3.83;3.10;;;;;;;;;;1742232;28;20223;-81
2023/12/27 07:43:05;;;;;;;3.63;3.33;;;;;;;;;;1740210;28;20199;-79
2023/12/27 07:43:56;;;;;;;3.30;3.00;;;;;;;;;;1749050;28;20198;-81
2023/12/27 07:44:48;;;;;;;3.80;2.95;;;;;;;;;;1747507;28;20198;-79
2023/12/27 07:45:39;;;;;;;3.15;2.85;;;;;;;;;;1742327;28;20218;-80
2023/12/27 07:46:30;;;;;;;3.17;2.88;;;;;;;;;;1742150;28;20651;-79
2023/12/27 07:47:22;;;;;;;4.53;2.70;;;;;;;;;;1735314;28;20196;-79
2023/12/27 07:48:13;;;;;;;10.60;3.20;;;;;;;;;;1734820;28;20200;-80
2023/12/27 07:49:07;;;;;;;4.32;2.70;;;;;;;;;;1740820;28;20207;-81
2023/12/27 07:49:58;;;;;;;4.00;2.60;;;;;;;;;;1742809;28;20671;-80
2023/12/27 07:50:50;;;;;;;3.15;2.63;;;;;;;;;;1739217;28;20220;-80
2023/12/27 07:51:42;;;;;;;5.50;3.78;;;;;;;;;;1742373;28;20671;-81
2023/12/27 07:52:33;;;;;;;8.70;4.10;;;;;;;;;;1742632;28;20211;-81
2023/12/27 07:53:24;;;;;;;5.50;3.95;;;;;;;;;;1742578;28;20820;-81
2023/12/27 07:54:16;;;;;;;11.60;7.00;;;;;;;;;;1746746;28;20210;-80
2023/12/27 07:55:08;;;;;;;11.43;7.45;;;;;;;;;;1742183;28;20583;-80
2023/12/27 07:56:00;;;;;;;14.73;9.15;;;;;;;;;;1742775;28;20632;-80
2023/12/27 07:56:51;;;;;;;13.27;9.00;;;;;;;;;;1742580;28;20218;-80
2023/12/27 07:57:43;;;;;;;11.10;7.95;;;;;;;;;;1742626;28;20210;-81
2023/12/27 07:58:35;;;;;;;9.05;7.30;;;;;;;;;;1737149;28;20227;-80
2023/12/27 07:59:26;;;;;;;13.25;8.90;;;;;;;;;;1736426;28;20215;-80
2023/12/27 08:00:18;;;;;;;17.13;9.70;;;;;;;;;;1739870;28;20210;-80
2023/12/27 08:01:09;;;;;;;10.20;7.90;;;;;;;;;;1743906;28;20203;-81
2023/12/27 08:02:01;;;;;;;10.50;7.18;;;;;;;;;;1744899;28;20207;-83
2023/12/27 08:02:53;;;;;;;8.23;6.40;;;;;;;;;;1744807;28;20272;-81
2023/12/27 08:03:45;;;;;;;9.45;6.50;;;;;;;;;;1744099;28;20281;-83
2023/12/27 08:04:38;;;;;;;7.28;5.05;;;;;;;;;;1737975;28;20216;-83
2023/12/27 08:05:30;;;;;;;9.13;6.43;;;;;;;;;;1738350;28;20200;-83
2023/12/27 08:06:21;;;;;;;12.30;7.75;;;;;;;;;;1744099;28;20298;-82
2023/12/27 08:07:12;;;;;;;15.57;10.57;;;;;;;;;;1744926;28;20863;-81
2023/12/27 08:08:04;;;;;;;12.57;9.85;;;;;;;;;;1748724;28;20643;-81
2023/12/27 08:08:55;;;;;;;11.90;10.38;;;;;;;;;;1752119;28;20203;-80
2023/12/27 08:09:48;;;;;;;18.55;12.30;;;;;;;;;;1748761;28;20199;-82
2023/12/27 08:10:39;;;;;;;12.48;9.93;;;;;;;;;;1745691;28;20223;-82
2023/12/27 08:11:31;;;;;;;12.27;8.80;;;;;;;;;;1744215;28;20202;-81
2023/12/27 08:12:22;;;;;;;11.73;8.45;;;;;;;;;;1745695;28;20211;-81
2023/12/27 08:13:14;;;;;;;10.32;8.10;;;;;;;;;;1747421;28;20199;-81
2023/12/27 08:14:05;;;;;;;9.52;7.00;;;;;;;;;;1744370;28;20202;-82
2023/12/27 08:14:56;;;;;;;8.18;6.68;;;;;;;;;;1744554;28;20289;-81
2023/12/27 08:15:49;;;;;;;9.43;7.20;;;;;;;;;;1745523;28;20207;-80
2023/12/27 08:16:40;;;;;;;10.10;6.15;;;;;;;;;;1743286;28;20591;-80
2023/12/27 08:17:31;;;;;;;12.18;7.00;;;;;;;;;;1738487;28;20214;-80
2023/12/27 08:18:23;;;;;;;6.35;5.38;;;;;;;;;;1735656;28;20207;-80
2023/12/27 08:19:14;;;;;;;8.60;5.80;;;;;;;;;;1739408;28;20560;-80
2023/12/27 08:20:08;;;;;;;6.22;5.40;;;;;;;;;;1743023;28;20195;-78
2023/12/27 08:20:59;;;;;;;5.53;4.97;;;;;;;;;;1741556;28;20231;-77
2023/12/27 08:21:50;;;;;;;5.38;4.30;;;;;;;;;;1744672;28;20194;-76
2023/12/27 08:22:43;;;;;;;6.22;4.43;;;;;;;;;;1741114;28;20192;-75
2023/12/27 08:23:34;;;;;;;5.90;4.75;;;;;;;;;;1734370;28;20212;-75
2023/12/27 08:24:25;;;;;;;6.32;5.03;;;;;;;;;;1734514;28;20209;-74
2023/12/27 08:25:17;;;;;;;9.77;7.10;;;;;;;;;;1740093;28;20262;-75
2023/12/27 08:26:08;;;;;;;9.40;7.00;;;;;;;;;;1741012;28;20203;-75
2023/12/27 08:26:59;;;;;;;11.00;8.23;;;;;;;;;;1736849;28;20203;-75
2023/12/27 08:27:51;;;;;;;7.88;6.95;;;;;;;;;;1734403;28;20204;-75
2023/12/27 08:28:42;;;;;;;10.35;7.55;;;;;;;;;;1736499;28;20228;-74
2023/12/27 08:29:33;;;;;;;7.50;6.68;;;;;;;;;;1741402;28;20261;-75
2023/12/27 08:30:25;;;;;;;8.70;6.35;;;;;;;;;;1740611;28;20873;-75
2023/12/27 08:31:16;;;;;;;6.97;6.28;;;;;;;;;;1738726;28;20203;-75
2023/12/27 08:32:08;;;;;;;7.05;6.35;;;;;;;;;;1741449;28;20227;-75
2023/12/27 08:33:01;;;;;;;7.55;5.68;;;;;;;;;;1741329;28;20203;-75
2023/12/27 08:33:52;;;;;;;7.68;6.13;;;;;;;;;;1741262;28;20683;-75
2023/12/27 08:34:43;;;;;;;6.93;6.10;;;;;;;;;;1736538;28;20238;-75
2023/12/27 08:35:36;;;;;;;6.10;5.13;;;;;;;;;;1737951;28;20199;-74
2023/12/27 08:36:29;;;;;;;6.95;4.40;;;;;;;;;;1744594;28;20230;-74
2023/12/27 08:37:20;;;;;;;5.93;3.50;;;;;;;;;;1741501;28;20285;-74
2023/12/27 08:38:12;;;;;;;4.50;3.30;;;;;;;;;;1740962;28;20193;-75
2023/12/27 08:39:04;;;;;;;4.07;3.67;;;;;;;;;;1741242;28;20218;-75
2023/12/27 08:39:55;;;;;;;4.15;3.53;;;;;;;;;;1740678;28;20227;-75
2023/12/27 08:40:47;;;;;;;3.35;2.80;;;;;;;;;;1734326;28;20224;-75
2023/12/27 08:41:38;;;;;;;3.78;3.35;;;;;;;;;;1741268;28;20257;-75
2023/12/27 08:42:30;;;;;;;5.47;3.90;;;;;;;;;;1741291;28;20682;-75
2023/12/27 08:43:27;;;;;;;3.53;3.22;;;;;;;;;;1739429;28;20209;-74
2023/12/27 08:44:18;;;;;;;5.85;4.53;;;;;;;;;;1741310;28;20249;-76
2023/12/27 08:45:11;;;;;;;5.80;4.80;;;;;;;;;;1740415;28;20191;-74
2023/12/27 08:46:02;;;;;;;9.73;4.50;;;;;;;;;;1737363;28;20261;-74
2023/12/27 08:46:53;;;;;;;4.45;4.05;;;;;;;;;;1741133;28;20195;-74
2023/12/27 08:47:45;;;;;;;7.20;3.90;;;;;;;;;;1740913;28;20199;-74
2023/12/27 08:48:37;;;;;;;5.63;3.90;;;;;;;;;;1743633;28;20251;-73
2023/12/27 08:49:28;;;;;;;4.72;3.63;;;;;;;;;;1743568;28;20198;-74
2023/12/27 08:50:20;;;;;;;5.68;3.90;;;;;;;;;;1736516;28;20218;-75
2023/12/27 08:51:13;;;;;;;5.70;3.90;;;;;;;;;;1740889;28;20207;-75
2023/12/27 08:52:05;;;;;;;5.00;3.22;;;;;;;;;;1734747;28;20708;-75
2023/12/27 08:52:56;;;;;;;8.50;3.58;;;;;;;;;;1741178;28;20211;-75
2023/12/27 08:53:48;;;;;;;6.10;3.40;;;;;;;;;;1738024;28;20202;-74
2023/12/27 08:54:40;;;;;;;4.03;3.65;;;;;;;;;;1741078;28;20788;-75
2023/12/27 08:55:31;;;;;;;6.13;3.70;;;;;;;;;;1737298;28;20195;-75
2023/12/27 08:56:23;;;;;;;4.95;4.03;;;;;;;;;;1736881;28;20243;-76
2023/12/27 08:57:15;;;;;;;5.15;4.00;;;;;;;;;;1740474;28;20210;-75
2023/12/27 08:58:09;;;;;;;5.53;4.32;;;;;;;;;;1740001;28;20205;-75
2023/12/27 08:59:00;;;;;;;6.75;4.20;;;;;;;;;;1746700;28;20186;-75
2023/12/27 08:59:52;;;;;;;5.60;4.50;;;;;;;;;;1740450;28;20820;-75
2023/12/27 09:00:43;;;;;;;6.50;5.25;;;;;;;;;;1740246;28;20223;-75
2023/12/27 09:01:35;;;;;;;6.68;4.90;;;;;;;;;;1740242;28;20206;-76
2023/12/27 09:02:28;;;;;;;10.00;5.53;;;;;;;;;;1740983;28;20203;-75
2023/12/27 09:03:19;;;;;;;8.27;5.45;;;;;;;;;;1738224;28;20216;-75
2023/12/27 09:04:11;;;;;;;11.02;5.82;;;;;;;;;;1740901;28;20203;-75
2023/12/27 09:05:03;;;;;;;5.75;5.15;;;;;;;;;;1737597;28;20203;-75
2023/12/27 09:05:54;;;;;;;7.07;5.43;;;;;;;;;;1734049;28;20219;-75
2023/12/27 09:06:46;;;;;;;6.70;4.40;;;;;;;;;;1737966;28;20191;-75
2023/12/27 09:07:39;;;;;;;6.07;4.78;;;;;;;;;;1738820;28;20234;-75
2023/12/27 09:08:30;;;;;;;9.27;4.57;;;;;;;;;;1739375;28;20663;-75
2023/12/27 09:09:22;;;;;;;5.55;4.20;;;;;;;;;;1736982;28;20203;-75
2023/12/27 09:10:14;;;;;;;6.03;3.95;;;;;;;;;;1741031;28;20336;-74
2023/12/27 09:11:06;;;;;;;7.35;4.63;;;;;;;;;;1736204;28;20223;-75
2023/12/27 09:11:57;;;;;;;6.32;4.40;;;;;;;;;;1740928;28;20258;-75
2023/12/27 09:12:49;;;;;;;5.05;3.92;;;;;;;;;;1741965;28;20233;-75
2023/12/27 09:13:40;;;;;;;4.00;3.60;;;;;;;;;;1740809;28;20199;-75
2023/12/27 09:14:33;;;;;;;5.07;4.30;;;;;;;;;;1737533;28;20199;-75
2023/12/27 09:15:24;;;;;;;6.93;4.50;;;;;;;;;;1736860;28;20558;-74
2023/12/27 09:16:17;;;;;;;6.18;4.20;;;;;;;;;;1740750;28;20233;-75
2023/12/27 09:17:08;;;;;;;8.00;4.88;;;;;;;;;;1740870;28;20207;-75
2023/12/27 09:17:59;;;;;;;8.40;5.30;;;;;;;;;;1740035;28;20647;-75
2023/12/27 09:18:52;;;;;;;11.20;7.45;;;;;;;;;;1740280;28;20214;-75
2023/12/27 09:19:43;;;;;;;13.43;7.47;;;;;;;;;;1740762;28;20205;-75
2023/12/27 09:20:34;;;;;;;12.57;7.18;;;;;;;;;;1738854;28;20198;-74
2023/12/27 09:21:26;;;;;;;11.60;7.63;;;;;;;;;;1740030;28;20195;-74
2023/12/27 09:22:19;;;;;;;11.23;7.40;;;;;;;;;;1737762;28;20258;-75
2023/12/27 09:23:11;;;;;;;11.90;7.03;;;;;;;;;;1739842;28;20203;-74
2023/12/27 09:24:03;;;;;;;9.10;6.05;;;;;;;;;;1737091;28;20298;-75
2023/12/27 09:24:55;;;;;;;9.90;5.82;;;;;;;;;;1740153;28;20223;-76
2023/12/27 09:25:47;;;;;;;6.72;5.20;;;;;;;;;;1742240;28;20207;-74
2023/12/27 09:26:38;;;;;;;6.93;4.80;;;;;;;;;;1745860;28;20675;-74
2023/12/27 09:27:30;;;;;;;6.18;5.22;;;;;;;;;;1743877;28;20558;-74
2023/12/27 09:28:25;;;;;;;6.75;5.03;;;;;;;;;;1735687;28;20756;-75
2023/12/27 09:29:16;;;;;;;8.40;5.53;;;;;;;;;;1740827;28;20596;-75
2023/12/27 09:30:08;;;;;;;5.82;4.90;;;;;;;;;;1735058;28;20208;-74
2023/12/27 09:31:00;;;;;;;6.80;5.05;;;;;;;;;;1740645;28;20227;-75
2023/12/27 09:31:51;;;;;;;6.88;5.00;;;;;;;;;;1738600;28;20206;-75
2023/12/27 09:32:43;;;;;;;6.03;5.15;;;;;;;;;;1741014;28;20203;-75
2023/12/27 09:33:35;;;;;;;6.60;4.63;;;;;;;;;;1740577;28;20203;-74
2023/12/27 09:34:26;;;;;;;7.15;5.20;;;;;;;;;;1737722;28;20666;-75
2023/12/27 09:35:18;;;;;;;7.18;4.65;;;;;;;;;;1735946;28;20204;-73
2023/12/27 09:36:09;;;;;;;5.75;4.55;;;;;;;;;;1740580;28;20206;-74
2023/12/27 09:37:03;;;;;;;6.38;4.47;;;;;;;;;;1740416;28;20223;-74
2023/12/27 09:37:56;;;;;;;6.20;4.55;;;;;;;;;;1733405;28;20842;-74
2023/12/27 09:38:47;;;;;;;6.05;4.13;;;;;;;;;;1739261;28;20202;-76
2023/12/27 09:39:38;;;;;;;5.63;4.30;;;;;;;;;;1746204;28;20209;-75
2023/12/27 09:40:31;;;;;;;5.68;3.90;;;;;;;;;;1747893;28;20213;-75
2023/12/27 09:41:22;;;;;;;5.30;4.00;;;;;;;;;;1742904;28;20215;-75
2023/12/27 09:42:14;;;;;;;5.45;3.85;;;;;;;;;;1741057;28;20769;-76
2023/12/27 09:43:06;;;;;;;8.55;4.78;;;;;;;;;;1740821;28;20260;-75
2023/12/27 09:43:58;;;;;;;6.18;3.97;;;;;;;;;;1740382;28;20321;-75
2023/12/27 09:44:51;;;;;;;7.13;4.15;;;;;;;;;;1740156;28;20200;-75
2023/12/27 09:45:42;;;;;;;7.30;4.55;;;;;;;;;;1740400;28;20217;-75
2023/12/27 09:46:37;;;;;;;6.03;4.15;;;;;;;;;;1739680;28;20281;-75
2023/12/27 09:47:29;;;;;;;5.88;5.38;;;;;;;;;;1732689;28;20214;-74
2023/12/27 09:48:20;;;;;;;6.97;4.55;;;;;;;;;;1746028;28;20191;-75
2023/12/27 09:49:13;;;;;;;5.22;4.72;;;;;;;;;;1740726;28;20234;-75
2023/12/27 09:50:05;;;;;;;5.43;4.85;;;;;;;;;;1740262;28;20218;-75
2023/12/27 09:50:58;;;;;;;5.20;4.40;;;;;;;;;;1735250;28;20262;-75
2023/12/27 09:51:50;;;;;;;6.35;4.43;;;;;;;;;;1739856;28;20197;-75
2023/12/27 09:52:43;;;;;;;6.20;5.07;;;;;;;;;;1740249;28;20686;-75
2023/12/27 09:53:35;;;;;;;6.72;4.32;;;;;;;;;;1746365;28;20205;-75
2023/12/27 09:54:27;;;;;;;7.22;4.57;;;;;;;;;;1744520;28;20214;-75
2023/12/27 09:55:18;;;;;;;8.50;4.40;;;;;;;;;;1740523;28;20645;-75
2023/12/27 09:56:11;;;;;;;7.40;4.65;;;;;;;;;;1739179;28;20229;-75
2023/12/27 09:57:04;;;;;;;5.72;5.13;;;;;;;;;;1733406;28;20597;-75
2023/12/27 09:57:56;;;;;;;6.05;4.30;;;;;;;;;;1733354;28;20261;-76
2023/12/27 09:58:50;;;;;;;7.85;4.45;;;;;;;;;;1739208;28;20195;-76
2023/12/27 09:59:43;;;;;;;4.63;3.97;;;;;;;;;;1740904;28;20206;-76
2023/12/27 10:00:34;;;;;;;4.40;3.50;;;;;;;;;;1741027;28;20207;-76
2023/12/27 10:01:25;;;;;;;7.38;4.40;;;;;;;;;;1741058;28;20277;-76
2023/12/27 10:02:19;;;;;;;4.80;3.95;;;;;;;;;;1737696;28;20231;-77
2023/12/27 10:03:13;;;;;;;5.20;3.55;;;;;;;;;;1735574;28;20345;-77
2023/12/27 10:04:07;;;;;;;5.70;4.28;;;;;;;;;;1738902;28;20234;-77
2023/12/27 10:05:05;;;;;;;6.55;3.72;;;;;;;;;;1742744;28;20225;-76
2023/12/27 10:05:59;;;;;;;10.93;4.18;;;;;;;;;;1739172;28;20200;-79
2023/12/27 10:06:51;;;;;;;5.57;4.22;;;;;;;;;;1737159;28;20204;-77
2023/12/27 10:07:44;;;;;;;4.55;3.65;;;;;;;;;;1747105;28;20696;-77
2023/12/27 10:08:36;;;;;;;7.30;4.10;;;;;;;;;;1741056;28;20211;-77
2023/12/27 10:09:27;;;;;;;5.00;3.78;;;;;;;;;;1742603;28;20449;-77
2023/12/27 10:10:20;;;;;;;6.57;3.85;;;;;;;;;;1742255;28;20203;-77
2023/12/27 10:11:12;;;;;;;4.75;3.63;;;;;;;;;;1742315;28;20211;-77
2023/12/27 10:12:04;;;;;;;3.72;2.97;;;;;;;;;;1735621;28;20204;-77
2023/12/27 10:12:56;;;;;;;4.00;3.28;;;;;;;;;;1744398;28;20198;-77
2023/12/27 10:13:48;;;;;;;4.82;3.20;;;;;;;;;;1743750;28;20666;-77
2023/12/27 10:14:41;;;;;;;3.30;2.78;;;;;;;;;;1741832;28;20249;-77
2023/12/27 10:15:32;;;;;;;5.20;3.50;;;;;;;;;;1738136;28;20711;-77
2023/12/27 10:16:25;;;;;;;4.13;3.17;;;;;;;;;;1735516;28;20199;-77
2023/12/27 10:17:16;;;;;;;4.20;2.88;;;;;;;;;;1737656;28;20207;-78
2023/12/27 10:18:08;;;;;;;5.30;2.97;;;;;;;;;;1740878;28;20612;-77
2023/12/27 10:19:00;;;;;;;3.88;2.70;;;;;;;;;;1742172;28;20337;-77
2023/12/27 10:19:51;;;;;;;4.22;2.50;;;;;;;;;;1741052;28;20612;-76
2023/12/27 10:20:46;;;;;;;5.95;2.90;;;;;;;;;;1741031;28;20230;-77
2023/12/27 10:21:41;;;;;;;5.05;2.90;;;;;;;;;;1740493;28;20257;-77
2023/12/27 10:22:33;;;;;;;4.57;3.13;;;;;;;;;;1741316;28;20199;-76
2023/12/27 10:23:25;;;;;;;4.00;2.67;;;;;;;;;;1741103;28;20198;-76
2023/12/27 10:24:17;;;;;;;5.47;2.97;;;;;;;;;;1741250;28;20571;-77
2023/12/27 10:25:09;;;;;;;3.65;2.35;;;;;;;;;;1737105;28;20704;-77
2023/12/27 10:26:00;;;;;;;3.88;3.00;;;;;;;;;;1734458;28;20207;-76
2023/12/27 10:26:52;;;;;;;6.50;2.72;;;;;;;;;;1736976;28;20209;-77
2023/12/27 10:27:44;;;;;;;6.00;2.50;;;;;;;;;;1741257;28;20678;-77
2023/12/27 10:28:35;;;;;;;5.78;2.97;;;;;;;;;;1739314;28;20210;-76
2023/12/27 10:29:26;;;;;;;4.95;3.10;;;;;;;;;;1734504;28;20698;-77
2023/12/27 10:30:20;;;;;;;3.58;2.28;;;;;;;;;;1735738;28;20195;-76
2023/12/27 10:31:11;;;;;;;5.93;2.75;;;;;;;;;;1741389;28;20215;-76
2023/12/27 10:32:03;;;;;;;3.88;2.40;;;;;;;;;;1741077;28;20264;-77
2023/12/27 10:32:59;;;;;;;3.90;2.28;;;;;;;;;;1741192;28;20199;-77
2023/12/27 10:33:51;;;;;;;7.65;2.55;;;;;;;;;;1741202;28;20703;-77
2023/12/27 10:34:42;;;;;;;3.15;2.35;;;;;;;;;;1738046;28;20206;-77
2023/12/27 10:35:35;;;;;;;2.30;2.08;;;;;;;;;;1735879;28;20210;-77
2023/12/27 10:36:27;;;;;;;2.92;2.15;;;;;;;;;;1738868;28;20368;-76
2023/12/27 10:37:19;;;;;;;4.05;2.10;;;;;;;;;;1741006;28;20613;-77
2023/12/27 10:38:10;;;;;;;4.25;2.42;;;;;;;;;;1739588;28;20203;-76
2023/12/27 10:39:04;;;;;;;2.38;2.17;;;;;;;;;;1736351;28;20206;-78
2023/12/27 10:39:58;;;;;;;3.03;2.40;;;;;;;;;;1736848;28;20269;-77
2023/12/27 10:40:51;;;;;;;3.47;2.58;;;;;;;;;;1742410;28;20211;-77
2023/12/27 10:41:42;;;;;;;3.08;2.35;;;;;;;;;;1743617;28;20195;-77
2023/12/27 10:42:34;;;;;;;3.25;2.22;;;;;;;;;;1744012;28;20214;-77
2023/12/27 10:43:25;;;;;;;6.05;2.58;;;;;;;;;;1743865;28;20214;-77
2023/12/27 10:44:18;;;;;;;3.08;2.42;;;;;;;;;;1738097;28;20204;-77
2023/12/27 10:45:10;;;;;;;3.97;2.35;;;;;;;;;;1736061;28;20306;-77
2023/12/27 10:46:07;;;;;;;3.33;2.38;;;;;;;;;;1739833;28;20218;-77
2023/12/27 10:46:59;;;;;;;5.00;2.53;;;;;;;;;;1743866;28;20205;-77
2023/12/27 10:47:54;;;;;;;7.00;2.55;;;;;;;;;;1740690;28;20208;-77
2023/12/27 10:48:48;;;;;;;4.63;2.60;;;;;;;;;;1735847;28;20210;-77
2023/12/27 10:49:42;;;;;;;3.67;2.40;;;;;;;;;;1738272;28;20227;-77
2023/12/27 10:50:34;;;;;;;3.03;2.20;;;;;;;;;;1742033;28;20293;-76
2023/12/27 10:51:28;;;;;;;7.03;2.97;;;;;;;;;;1742355;28;20616;-77
2023/12/27 10:52:21;;;;;;;4.80;2.60;;;;;;;;;;1742330;28;20195;-77
2023/12/27 10:53:14;;;;;;;5.38;2.80;;;;;;;;;;1742035;28;20607;-75
2023/12/27 10:54:06;;;;;;;4.00;2.55;;;;;;;;;;1747529;28;20332;-76
2023/12/27 10:55:02;;;;;;;4.07;2.70;;;;;;;;;;1748933;28;20201;-75
2023/12/27 10:55:53;;;;;;;4.50;3.20;;;;;;;;;;1742403;28;20218;-75
2023/12/27 10:56:45;;;;;;;4.65;2.25;;;;;;;;;;1742194;28;20199;-77
2023/12/27 10:57:38;;;;;;;3.03;2.25;;;;;;;;;;1737049;28;20729;-75
2023/12/27 10:58:30;;;;;;;3.05;2.38;;;;;;;;;;1734446;28;20589;-76
2023/12/27 10:59:22;;;;;;;5.13;2.42;;;;;;;;;;1744877;28;20724;-76
2023/12/27 11:00:14;;;;;;;3.78;2.60;;;;;;;;;;1741888;28;20199;-76
2023/12/27 11:01:05;;;;;;;4.15;2.90;;;;;;;;;;1734978;28;20227;-75
2023/12/27 11:01:57;;;;;;;5.05;2.85;;;;;;;;;;1735224;28;20207;-76
2023/12/27 11:02:49;;;;;;;4.15;2.70;;;;;;;;;;1741998;28;20774;-76
2023/12/27 11:03:40;;;;;;;3.88;2.40;;;;;;;;;;1741875;28;20302;-76
2023/12/27 11:04:33;;;;;;;2.75;2.13;;;;;;;;;;1741886;28;20266;-76
2023/12/27 11:05:25;;;;;;;2.95;2.50;;;;;;;;;;1735636;28;20584;-76
2023/12/27 11:06:18;;;;;;;2.80;2.10;;;;;;;;;;1735066;28;20716;-76
2023/12/27 11:07:09;;;;;;;4.07;2.22;;;;;;;;;;1735027;28;20212;-75
2023/12/27 11:08:01;;;;;;;2.20;2.00;;;;;;;;;;1734475;28;20257;-76
2023/12/27 11:08:53;;;;;;;2.20;2.00;;;;;;;;;;1738441;28;20207;-76
2023/12/27 11:09:45;;;;;;;2.78;1.83;;;;;;;;;;1741808;28;20226;-75
2023/12/27 11:10:39;;;;;;;3.67;2.13;;;;;;;;;;1744835;28;20227;-76